Time;durP1;ratioP1;P1;durP2;ratioP2;P2;SDS_P1;SDS_P2;PMS_P1;PMS_P2;Temp;Humidity;BMP_temperature;BMP_pressure;BME280_temperature;BME280_humidity;BME280_pressure;Samples;Min_cycle;Max_cycle;Signal;HPM_P1;HPM_P2
2021/01/30 00:05:00;;;;;;;16.63;8.53;;;;;;;4.09;81.19;98741.53;8431216;33;20976;-71
2021/01/30 00:10:04;;;;;;;24.63;11.63;;;;;;;3.98;80.55;98756.28;8368761;33;22116;-71
2021/01/30 00:15:10;;;;;;;20.27;9.90;;;;;;;3.99;81.00;98772.97;8365570;34;20462;-73
2021/01/30 00:20:16;;;;;;;19.35;10.55;;;;;;;3.69;80.77;98804.88;8367341;34;20515;-71
2021/01/30 00:25:21;;;;;;;26.77;11.83;;;;;;;3.82;80.95;98795.22;8389493;33;20892;-71
2021/01/30 00:30:27;;;;;;;28.37;14.13;;;;;;;3.73;80.61;98798.44;8407701;33;20185;-71
2021/01/30 00:35:33;;;;;;;19.53;10.83;;;;;;;3.62;80.46;98816.75;8415820;33;20418;-71
2021/01/30 00:40:35;;;;;;;20.00;11.73;;;;;;;3.51;80.19;98828.88;8394859;33;20178;-71
2021/01/30 00:45:39;;;;;;;25.47;12.97;;;;;;;3.50;80.54;98829.78;8370251;34;20233;-71
2021/01/30 00:50:42;;;;;;;25.40;14.27;;;;;;;3.59;79.94;98830.16;8372452;34;20429;-70
2021/01/30 00:55:45;;;;;;;26.33;13.10;;;;;;;3.58;79.84;98837.22;8381986;33;22230;-71
2021/01/30 01:00:48;;;;;;;29.17;12.83;;;;;;;3.60;79.87;98845.91;8392457;33;20182;-70
2021/01/30 01:05:56;;;;;;;29.07;13.90;;;;;;;3.62;79.77;98862.53;8368097;34;20465;-70
2021/01/30 01:10:59;;;;;;;24.30;11.83;;;;;;;3.58;80.27;98876.84;8387018;33;20187;-70
2021/01/30 01:16:03;;;;;;;19.60;11.30;;;;;;;3.56;79.93;98890.16;8645682;33;20320;-70
2021/01/30 01:21:05;;;;;;;23.83;11.80;;;;;;;3.57;80.15;98912.13;8622192;34;21548;-70
2021/01/30 01:26:08;;;;;;;20.83;10.27;;;;;;;3.29;80.68;98924.38;8645301;33;20335;-70
2021/01/30 01:31:13;;;;;;;17.77;9.17;;;;;;;3.15;80.45;98931.41;8645788;33;20241;-70
2021/01/30 01:36:19;;;;;;;14.60;8.70;;;;;;;3.11;80.52;98952.69;8633242;33;20992;-70
2021/01/30 01:41:21;;;;;;;13.17;8.33;;;;;;;3.24;81.01;98962.53;8621599;34;20229;-70
2021/01/30 01:46:29;;;;;;;16.97;8.90;;;;;;;3.24;80.57;98970.47;8574215;33;20303;-70
2021/01/30 01:51:42;;;;;;;10.03;6.57;;;;;;;2.92;79.21;98978.47;8432918;33;20440;-70
2021/01/30 01:56:46;;;;;;;14.17;8.73;;;;;;;3.02;80.16;98987.56;8410853;33;20465;-70
2021/01/30 02:01:50;;;;;;;13.27;7.57;;;;;;;2.94;79.85;98979.22;8422414;33;20501;-70
2021/01/30 02:06:53;;;;;;;11.80;7.07;;;;;;;3.03;79.82;99005.06;8446005;33;20459;-71
2021/01/30 02:12:03;;;;;;;12.47;6.73;;;;;;;2.93;79.75;98998.63;8442784;33;20219;-71
2021/01/30 02:17:20;;;;;;;8.33;5.23;;;;;;;2.95;79.80;99004.66;8485589;33;20661;-71
2021/01/30 02:23:04;;;;;;;9.53;6.03;;;;;;;3.02;80.42;99013.94;8483512;33;20984;-71
2021/01/30 02:28:18;;;;;;;10.13;7.03;;;;;;;2.99;79.98;99016.75;8505228;33;20427;-70
2021/01/30 02:34:27;;;;;;;8.03;5.47;;;;;;;2.85;79.32;99014.03;8484955;33;20763;-70
2021/01/30 02:39:36;;;;;;;10.37;6.33;;;;;;;2.87;79.72;99022.72;8473040;33;21450;-71
2021/01/30 02:44:43;;;;;;;10.67;6.10;;;;;;;2.82;79.79;99016.84;8470963;33;20413;-70
2021/01/30 02:49:52;;;;;;;9.37;6.57;;;;;;;2.81;79.99;99038.91;8477310;33;21929;-70
2021/01/30 02:54:58;;;;;;;17.33;7.40;;;;;;;2.86;80.12;99040.34;8481617;33;20500;-71
2021/01/30 03:00:06;;;;;;;10.27;6.43;;;;;;;2.87;79.32;99055.22;8485620;33;20231;-71
2021/01/30 03:05:11;;;;;;;14.50;6.47;;;;;;;2.87;79.97;99065.75;8487834;33;20239;-71
2021/01/30 03:10:23;;;;;;;14.30;6.57;;;;;;;2.86;79.82;99072.00;8488575;33;20312;-71
2021/01/30 03:15:32;;;;;;;13.40;6.23;;;;;;;2.89;79.73;99084.16;8488500;33;20890;-71
2021/01/30 03:20:41;;;;;;;12.10;6.27;;;;;;;2.94;79.81;99091.81;8489805;33;21811;-70
2021/01/30 03:25:47;;;;;;;12.83;7.80;;;;;;;2.93;79.93;99096.22;8492170;33;20176;-71
2021/01/30 03:30:49;;;;;;;12.70;6.90;;;;;;;2.88;80.06;99099.13;8491477;33;20886;-73
2021/01/30 03:35:52;;;;;;;18.20;7.37;;;;;;;2.92;80.22;99106.88;8486526;33;20465;-71
2021/01/30 03:40:55;;;;;;;20.23;8.90;;;;;;;2.86;79.47;99108.91;8487970;33;20160;-70
2021/01/30 03:45:58;;;;;;;15.57;7.63;;;;;;;2.76;78.80;99126.19;8488074;33;20508;-71
2021/01/30 03:51:00;;;;;;;15.20;7.47;;;;;;;2.71;79.04;99125.56;8488259;33;20549;-71
2021/01/30 03:56:04;;;;;;;13.97;6.97;;;;;;;2.76;79.53;99136.72;8487090;33;20713;-70
2021/01/30 04:01:06;;;;;;;10.17;6.23;;;;;;;2.80;79.12;99154.09;8487916;33;20176;-71
2021/01/30 04:06:13;;;;;;;12.30;6.60;;;;;;;2.73;78.66;99163.28;8489603;33;20454;-70
2021/01/30 04:11:16;;;;;;;13.13;6.57;;;;;;;2.77;78.78;99163.94;8486745;33;20695;-70
2021/01/30 04:16:19;;;;;;;11.23;5.93;;;;;;;2.68;78.48;99168.78;8484233;33;20144;-71
2021/01/30 04:21:22;;;;;;;14.77;6.90;;;;;;;2.68;79.03;99165.31;8486498;33;20509;-70
2021/01/30 04:26:25;;;;;;;13.70;7.23;;;;;;;2.66;78.42;99170.69;8488856;33;20922;-71
2021/01/30 04:31:28;;;;;;;14.90;7.03;;;;;;;2.67;78.81;99168.88;8490142;33;20450;-71
2021/01/30 04:36:30;;;;;;;12.33;7.07;;;;;;;2.58;78.10;99172.03;8494191;33;20199;-70
2021/01/30 04:41:49;;;;;;;13.47;7.50;;;;;;;2.65;78.98;99179.50;8484440;33;20227;-71
2021/01/30 04:47:15;;;;;;;9.93;6.37;;;;;;;2.66;79.24;99178.59;8482168;33;20145;-72
2021/01/30 04:52:36;;;;;;;12.43;6.03;;;;;;;2.64;78.62;99175.19;8481824;33;20948;-72
2021/01/30 04:57:59;;;;;;;12.27;6.97;;;;;;;2.56;78.32;99177.38;8480867;33;21101;-71
2021/01/30 05:03:16;;;;;;;15.20;7.40;;;;;;;2.69;79.00;99193.41;8488542;33;20488;-72
2021/01/30 05:08:25;;;;;;;13.23;7.40;;;;;;;2.68;78.68;99197.78;8488655;33;20546;-71
2021/01/30 05:13:36;;;;;;;12.17;7.23;;;;;;;2.71;79.18;99196.78;8490458;33;20502;-71
2021/01/30 05:18:46;;;;;;;13.20;7.23;;;;;;;2.77;79.42;99201.75;8500650;33;20960;-71
2021/01/30 05:23:51;;;;;;;15.00;7.63;;;;;;;2.73;79.14;99202.00;8490097;33;21719;-71
2021/01/30 05:29:05;;;;;;;15.33;7.70;;;;;;;2.62;78.22;99218.38;8488438;33;20463;-71
2021/01/30 05:34:14;;;;;;;12.80;7.90;;;;;;;2.63;78.12;99230.63;8496426;33;20153;-71
2021/01/30 05:39:46;;;;;;;16.40;8.80;;;;;;;2.70;79.09;99228.53;8502325;33;20472;-71
2021/01/30 05:44:58;;;;;;;14.73;8.23;;;;;;;2.65;78.64;99229.59;8497343;33;20569;-71
2021/01/30 05:50:10;;;;;;;17.53;9.23;;;;;;;2.60;78.38;99247.44;8492473;33;20180;-71
2021/01/30 05:55:26;;;;;;;19.47;9.27;;;;;;;2.68;78.22;99242.63;8488658;33;22077;-71
2021/01/30 06:00:29;;;;;;;17.60;8.83;;;;;;;2.68;78.44;99254.97;8488456;33;20160;-71
2021/01/30 06:05:36;;;;;;;19.97;9.33;;;;;;;2.68;78.29;99242.63;8490337;33;20206;-71
2021/01/30 06:10:40;;;;;;;17.03;8.10;;;;;;;2.61;78.44;99249.16;8497114;33;21833;-72
2021/01/30 06:15:47;;;;;;;17.37;9.23;;;;;;;2.65;78.77;99249.84;8501579;33;20420;-72
2021/01/30 06:20:59;;;;;;;18.87;8.57;;;;;;;2.69;78.62;99256.69;8501840;33;20976;-71
2021/01/30 06:26:10;;;;;;;16.67;9.20;;;;;;;2.78;78.70;99261.47;8501277;33;20405;-72
2021/01/30 06:31:25;;;;;;;17.30;8.80;;;;;;;2.80;78.12;99262.25;8501486;33;20423;-71
2021/01/30 06:36:31;;;;;;;17.30;8.43;;;;;;;2.77;78.75;99269.44;8499422;33;20503;-72
2021/01/30 06:41:36;;;;;;;16.77;9.03;;;;;;;2.76;78.31;99268.59;8499867;33;20506;-72
2021/01/30 06:47:15;;;;;;;15.90;8.73;;;;;;;2.78;78.25;99276.44;8501124;33;20814;-71
2021/01/30 06:52:24;;;;;;;18.50;9.30;;;;;;;2.84;78.72;99276.13;8501140;33;21523;-71
2021/01/30 06:57:27;;;;;;;17.33;9.13;;;;;;;2.86;78.50;99276.91;8504078;33;21894;-72
2021/01/30 07:02:36;;;;;;;22.23;9.77;;;;;;;2.79;78.39;99280.78;8508646;33;20475;-71
2021/01/30 07:07:54;;;;;;;24.60;10.83;;;;;;;2.78;78.33;99281.72;8509225;33;20188;-71
2021/01/30 07:13:21;;;;;;;25.17;12.17;;;;;;;2.68;77.64;99289.25;8527296;33;20417;-71
2021/01/30 07:18:30;;;;;;;23.80;10.27;;;;;;;2.88;77.29;99278.53;8504746;33;20152;-72
2021/01/30 07:23:41;;;;;;;26.27;10.20;;;;;;;2.97;77.01;99278.97;8505196;33;20177;-71
2021/01/30 07:28:56;;;;;;;23.03;10.43;;;;;;;3.01;77.46;99273.44;8506553;33;20377;-71
2021/01/30 07:34:09;;;;;;;26.20;11.03;;;;;;;3.07;77.65;99281.03;8510460;33;20569;-72
2021/01/30 07:39:29;;;;;;;21.20;10.37;;;;;;;3.02;77.46;99272.50;8495602;33;20553;-71
2021/01/30 07:44:55;;;;;;;18.87;8.20;;;;;;;3.11;77.72;99272.00;8472557;33;21206;-72
2021/01/30 07:50:03;;;;;;;29.90;11.00;;;;;;;3.30;76.85;99269.22;8465057;33;21582;-71
2021/01/30 07:55:10;;;;;;;25.17;12.03;;;;;;;3.31;77.40;99278.00;8500071;33;20153;-71
2021/01/30 08:00:19;;;;;;;24.87;10.83;;;;;;;3.37;77.00;99277.66;8493494;33;20184;-71
2021/01/30 08:05:34;;;;;;;17.10;9.13;;;;;;;3.38;76.26;99281.16;8465654;33;20276;-71
2021/01/30 08:10:50;;;;;;;17.83;9.40;;;;;;;3.34;75.95;99281.31;8451426;33;20417;-72
2021/01/30 08:16:02;;;;;;;19.40;9.85;;;;;;;3.59;75.17;99277.31;8444789;33;20429;-71
2021/01/30 08:21:17;;;;;;;18.20;8.13;;;;;;;3.76;75.08;99269.31;8456765;33;21013;-72
2021/01/30 08:26:28;;;;;;;17.67;8.03;;;;;;;3.56;73.09;99288.94;8448677;33;20548;-71
2021/01/30 08:31:41;;;;;;;18.57;8.87;;;;;;;3.63;74.58;99288.56;8448820;33;21507;-71
2021/01/30 08:36:58;;;;;;;15.43;7.50;;;;;;;3.61;74.22;99288.66;8449674;33;20177;-71
2021/01/30 08:42:05;;;;;;;16.87;7.77;;;;;;;3.52;73.76;99292.66;8436617;33;20517;-70
2021/01/30 08:47:16;;;;;;;17.37;7.10;;;;;;;3.39;73.73;99288.13;8432318;33;20633;-71
2021/01/30 08:52:24;;;;;;;19.60;8.67;;;;;;;3.51;74.67;99303.28;8433267;33;20302;-72
2021/01/30 08:57:44;;;;;;;17.20;7.83;;;;;;;3.56;74.17;99311.81;8433000;33;20426;-72
2021/01/30 09:02:51;;;;;;;17.23;8.43;;;;;;;3.48;74.17;99308.75;8431632;33;21457;-71
2021/01/30 09:07:56;;;;;;;18.07;7.90;;;;;;;3.81;74.88;99307.81;8454238;33;20196;-72
2021/01/30 09:13:06;;;;;;;14.40;7.47;;;;;;;4.95;75.02;99305.53;8439974;33;20177;-72
2021/01/30 09:18:15;;;;;;;18.80;7.27;;;;;;;5.20;70.55;99309.31;8444191;33;20441;-72
2021/01/30 09:23:33;;;;;;;16.27;6.83;;;;;;;4.99;70.15;99306.19;8467480;33;20422;-72
2021/01/30 09:28:36;;;;;;;13.40;7.60;;;;;;;5.01;68.56;99305.16;8450692;33;20280;-71
2021/01/30 09:33:42;;;;;;;13.60;6.50;;;;;;;5.15;70.39;99301.66;9307638;28;20153;-69
2021/01/30 09:38:48;;;;;;;14.30;6.60;;;;;;;5.24;68.63;99305.56;8525202;33;20920;-68
2021/01/30 09:44:06;;;;;;;14.33;7.60;;;;;;;5.54;69.99;99322.19;8541328;33;20441;-70
2021/01/30 09:49:16;;;;;;;15.83;7.50;;;;;;;5.53;69.66;99315.16;8538402;33;20263;-70
2021/01/30 09:54:23;;;;;;;16.75;8.10;;;;;;;5.73;69.54;99324.50;8522368;33;20245;-70
2021/01/30 09:59:29;;;;;;;12.98;7.18;;;;;;;5.86;70.91;99321.91;8518440;33;20410;-71
2021/01/30 10:05:21;;;;;;;13.30;7.30;;;;;;;6.20;68.97;99307.34;9428321;28;20148;-74
2021/01/30 10:12:34;;;;;;;14.70;8.07;;;;;;;5.96;69.42;99298.34;8875486;32;20758;-74
2021/01/30 10:17:41;;;;;;;15.98;8.70;;;;;;;6.03;70.02;99302.28;8801485;32;20186;-75
2021/01/30 10:22:47;;;;;;;19.35;9.15;;;;;;;6.04;69.57;99301.34;8796760;33;20174;-74
2021/01/30 10:28:03;;;;;;;12.25;6.97;;;;;;;5.91;68.44;99289.81;8796764;33;20473;-75
2021/01/30 10:33:09;;;;;;;11.60;6.30;;;;;;;5.61;68.96;99295.28;8724562;32;20336;-74
2021/01/30 10:38:15;;;;;;;14.37;7.03;;;;;;;5.57;68.50;99295.47;8735194;32;20205;-75
2021/01/30 10:43:24;;;;;;;14.03;7.00;;;;;;;5.64;68.76;99289.78;8737344;32;20271;-75
2021/01/30 10:48:32;;;;;;;12.10;6.70;;;;;;;5.34;69.29;99288.97;8778027;32;20657;-74
2021/01/30 10:53:37;;;;;;;15.53;7.53;;;;;;;5.35;68.91;99276.59;8796352;32;20280;-75
2021/01/30 10:58:41;;;;;;;12.43;6.57;;;;;;;5.33;69.55;99289.09;8779875;33;20151;-75
2021/01/30 11:03:47;;;;;;;14.30;6.50;;;;;;;5.18;67.33;99288.22;8751998;33;20220;-75
2021/01/30 11:08:50;;;;;;;14.63;6.87;;;;;;;5.11;68.05;99287.75;8794537;33;20527;-75
2021/01/30 11:13:54;;;;;;;12.77;7.27;;;;;;;5.25;68.46;99275.47;8794011;33;20269;-77
2021/01/30 11:18:57;;;;;;;11.93;6.77;;;;;;;5.23;68.76;99267.59;8790778;33;20785;-77
2021/01/30 11:24:24;;;;;;;14.90;7.00;;;;;;;5.18;68.58;99282.09;8776300;33;20147;-76
2021/01/30 11:29:41;;;;;;;13.40;6.97;;;;;;;5.17;69.34;99273.28;8800537;33;20779;-76
2021/01/30 11:34:46;;;;;;;23.02;9.82;;;;;;;5.48;69.18;99256.31;8820376;33;20286;-76
2021/01/30 11:39:48;;;;;;;12.45;6.32;;;;;;;5.82;67.99;99251.50;8813030;33;20154;-77
2021/01/30 11:44:51;;;;;;;16.30;7.57;;;;;;;5.94;67.63;99250.72;8840277;33;20789;-76
2021/01/30 11:49:54;;;;;;;16.70;7.75;;;;;;;6.14;69.22;99245.88;8840948;33;20185;-77
2021/01/30 11:54:56;;;;;;;14.10;7.30;;;;;;;5.94;67.02;99245.41;8840619;33;21646;-75
2021/01/30 11:59:59;;;;;;;13.98;7.28;;;;;;;5.86;69.24;99245.03;8836941;33;20181;-76
2021/01/30 12:05:02;;;;;;;14.93;7.63;;;;;;;5.71;67.70;99238.09;8836794;33;20661;-77
2021/01/30 12:10:07;;;;;;;13.23;7.43;;;;;;;5.58;69.07;99236.22;8837014;33;20182;-77
2021/01/30 12:15:12;;;;;;;13.20;6.63;;;;;;;5.85;67.76;99229.25;8836513;33;20197;-76
2021/01/30 12:20:19;;;;;;;12.50;6.47;;;;;;;5.65;65.70;99225.22;8837619;33;20209;-77
2021/01/30 12:25:21;;;;;;;13.68;7.32;;;;;;;5.60;67.88;99217.59;8836428;33;20262;-76
2021/01/30 12:30:29;;;;;;;9.85;6.22;;;;;;;5.55;69.01;99225.84;8784127;32;20780;-76
2021/01/30 12:35:34;;;;;;;14.10;8.03;;;;;;;5.49;67.57;99217.44;8772816;33;20249;-76
2021/01/30 12:40:39;;;;;;;14.02;7.78;;;;;;;5.94;67.81;99228.66;8775351;33;20463;-77
2021/01/30 12:45:46;;;;;;;13.77;7.63;;;;;;;6.45;65.93;99213.69;8776811;33;20973;-77
2021/01/30 12:50:50;;;;;;;11.68;7.03;;;;;;;8.46;59.95;99211.59;8777338;33;20382;-77
2021/01/30 12:55:53;;;;;;;12.07;6.70;;;;;;;7.87;59.11;99207.16;8779193;33;20270;-78
2021/01/30 13:00:58;;;;;;;12.63;6.70;;;;;;;6.60;60.55;99203.81;8775308;33;20183;-77
2021/01/30 13:06:00;;;;;;;12.05;7.20;;;;;;;5.80;62.57;99198.56;8773533;33;20643;-77
2021/01/30 13:11:04;;;;;;;13.55;7.00;;;;;;;5.21;64.07;99198.03;8774240;33;20384;-77
2021/01/30 13:16:07;;;;;;;12.13;6.77;;;;;;;5.05;63.92;99197.31;8822634;33;20233;-77
2021/01/30 13:21:12;;;;;;;15.63;8.83;;;;;;;5.11;63.57;99200.41;8835319;33;20312;-76
2021/01/30 13:26:19;;;;;;;9.73;6.90;;;;;;;5.22;61.48;99201.53;8835691;33;20178;-77
2021/01/30 13:31:23;;;;;;;11.63;5.80;;;;;;;5.66;60.71;99193.34;8834493;33;20411;-77
2021/01/30 13:36:25;;;;;;;10.73;6.17;;;;;;;5.77;59.09;99190.84;8832935;33;20810;-77
2021/01/30 13:41:28;;;;;;;12.63;6.90;;;;;;;5.94;59.87;99175.66;8832695;33;20138;-77
2021/01/30 13:46:31;;;;;;;11.90;6.77;;;;;;;5.62;59.41;99186.53;8832060;33;20205;-77
2021/01/30 13:51:37;;;;;;;11.53;6.00;;;;;;;5.46;60.05;99181.41;8832620;33;20633;-77
2021/01/30 13:56:40;;;;;;;9.73;5.57;;;;;;;5.41;60.32;99183.50;8834511;33;20305;-77
2021/01/30 14:01:43;;;;;;;8.97;6.23;;;;;;;5.33;60.04;99183.16;8835003;33;20178;-77
2021/01/30 14:06:46;;;;;;;10.77;6.47;;;;;;;5.14;60.67;99204.66;8809645;33;20948;-76
2021/01/30 14:11:49;;;;;;;12.33;6.40;;;;;;;5.11;60.84;99204.84;8833668;33;20658;-77
2021/01/30 14:16:52;;;;;;;10.20;5.83;;;;;;;4.98;61.44;99209.22;8833226;33;20237;-77
2021/01/30 14:22:00;;;;;;;12.37;6.40;;;;;;;5.02;62.05;99205.41;8833955;33;21000;-77
2021/01/30 14:27:02;;;;;;;32.63;16.17;;;;;;;5.05;61.97;99206.09;8834376;33;21620;-76
2021/01/30 14:32:06;;;;;;;20.13;9.20;;;;;;;5.01;62.20;99209.00;8833389;33;20182;-76
2021/01/30 14:37:08;;;;;;;15.53;7.37;;;;;;;4.95;62.34;99209.41;8832696;33;20305;-77
2021/01/30 14:42:11;;;;;;;9.73;6.10;;;;;;;5.01;62.22;99216.94;8831974;33;20860;-77
2021/01/30 14:47:17;;;;;;;8.70;4.97;;;;;;;4.96;61.69;99204.00;8831525;33;20343;-77
2021/01/30 14:52:20;;;;;;;10.63;5.23;;;;;;;4.86;62.01;99211.66;8830914;33;20447;-77
2021/01/30 14:57:22;;;;;;;15.77;8.27;;;;;;;4.72;61.93;99208.16;8833782;33;20682;-77
2021/01/30 15:02:26;;;;;;;9.30;5.97;;;;;;;4.85;62.56;99207.34;8836701;33;20183;-77
2021/01/30 15:07:29;;;;;;;11.20;5.87;;;;;;;4.64;62.66;99213.94;8835749;33;20340;-76
2021/01/30 15:12:32;;;;;;;8.10;4.73;;;;;;;4.41;62.42;99221.44;8837493;33;20526;-76
2021/01/30 15:17:35;;;;;;;7.47;5.07;;;;;;;4.39;62.54;99219.88;8837517;33;20627;-76
2021/01/30 15:22:37;;;;;;;9.30;4.87;;;;;;;4.39;62.40;99223.38;8838219;33;20177;-77
2021/01/30 15:27:40;;;;;;;7.37;4.53;;;;;;;4.37;62.01;99227.88;8835589;33;20533;-76
2021/01/30 15:32:44;;;;;;;6.57;4.37;;;;;;;4.28;62.25;99225.81;8835611;33;20212;-76
2021/01/30 15:37:47;;;;;;;8.40;5.07;;;;;;;4.16;62.42;99232.63;8834946;33;20182;-76
2021/01/30 15:42:49;;;;;;;9.33;5.20;;;;;;;4.14;62.99;99241.59;8835316;33;20674;-77
2021/01/30 15:47:52;;;;;;;7.03;4.37;;;;;;;3.92;63.01;99231.44;8834861;33;20273;-76
2021/01/30 15:52:55;;;;;;;9.93;5.43;;;;;;;3.72;62.99;99238.72;8835770;33;20513;-76
2021/01/30 15:57:57;;;;;;;9.17;5.60;;;;;;;3.58;63.34;99241.28;8833821;33;20428;-76
2021/01/30 16:03:00;;;;;;;9.13;5.03;;;;;;;3.42;63.67;99251.84;8834579;33;20225;-76
2021/01/30 16:08:03;;;;;;;6.90;4.63;;;;;;;3.31;64.02;99252.44;8835589;33;20581;-75
2021/01/30 16:13:06;;;;;;;6.20;4.37;;;;;;;3.31;63.61;99247.16;8835558;33;20506;-77
2021/01/30 16:18:10;;;;;;;7.50;4.40;;;;;;;3.22;64.16;99262.66;8834000;33;20189;-77
2021/01/30 16:23:12;;;;;;;9.43;5.10;;;;;;;3.22;63.70;99263.50;8834314;33;20639;-77
2021/01/30 16:28:16;;;;;;;9.50;5.37;;;;;;;3.23;63.94;99261.72;8833461;33;20927;-77
2021/01/30 16:33:19;;;;;;;7.40;4.27;;;;;;;2.99;64.31;99270.03;8834700;33;20170;-77
2021/01/30 16:38:21;;;;;;;7.60;4.37;;;;;;;3.02;64.47;99272.50;8833613;33;20194;-76
2021/01/30 16:43:24;;;;;;;12.80;6.17;;;;;;;2.98;63.98;99285.94;8833571;33;20308;-75
2021/01/30 16:48:29;;;;;;;8.67;5.10;;;;;;;3.06;64.07;99270.56;8832977;33;20190;-76
2021/01/30 16:53:32;;;;;;;7.03;4.53;;;;;;;3.09;63.94;99276.50;8836317;33;21560;-77
2021/01/30 16:58:34;;;;;;;10.27;5.40;;;;;;;3.21;63.99;99282.94;8834217;33;20555;-76
2021/01/30 17:03:38;;;;;;;11.53;5.60;;;;;;;3.18;63.98;99282.22;8834467;33;20238;-76
2021/01/30 17:08:40;;;;;;;12.83;6.47;;;;;;;3.29;64.29;99290.41;8834593;33;20857;-77
2021/01/30 17:13:42;;;;;;;10.87;6.23;;;;;;;3.34;64.27;99288.38;8807574;33;21821;-76
2021/01/30 17:18:46;;;;;;;15.07;8.07;;;;;;;3.37;65.00;99293.50;8833109;33;20195;-76
2021/01/30 17:23:48;;;;;;;10.73;7.03;;;;;;;3.39;64.76;99288.97;8834080;33;20944;-76
2021/01/30 17:28:50;;;;;;;11.73;5.97;;;;;;;3.41;64.88;99292.41;8832984;33;20186;-77
2021/01/30 17:33:54;;;;;;;9.80;6.20;;;;;;;3.41;65.07;99281.84;8833624;33;20286;-77
2021/01/30 17:38:56;;;;;;;9.77;6.33;;;;;;;3.41;64.59;99286.28;8806945;33;20196;-77
2021/01/30 17:43:59;;;;;;;12.87;7.07;;;;;;;3.40;64.53;99295.09;8833985;33;20141;-77
2021/01/30 17:49:02;;;;;;;9.70;5.67;;;;;;;3.34;64.11;99299.78;8832452;33;20997;-77
2021/01/30 17:54:05;;;;;;;10.07;5.90;;;;;;;3.00;63.41;99302.56;8833351;33;20545;-77
2021/01/30 17:59:07;;;;;;;10.27;5.57;;;;;;;2.93;63.83;99311.72;8832421;33;20249;-77
2021/01/30 18:04:10;;;;;;;8.87;5.43;;;;;;;2.89;63.95;99305.75;8833068;33;20186;-77
2021/01/30 18:09:13;;;;;;;9.87;6.27;;;;;;;2.77;63.83;99301.97;8832761;33;20137;-77
2021/01/30 18:14:16;;;;;;;11.43;6.57;;;;;;;2.85;63.67;99312.97;8832807;33;21915;-77
2021/01/30 18:19:19;;;;;;;14.77;6.83;;;;;;;2.80;63.72;99307.09;8832572;33;20231;-77
2021/01/30 18:24:22;;;;;;;12.90;6.30;;;;;;;2.80;63.95;99316.78;8832949;33;20185;-76
2021/01/30 18:29:25;;;;;;;10.17;6.00;;;;;;;2.67;63.94;99317.41;8832597;33;22052;-76
2021/01/30 18:34:28;;;;;;;11.27;6.90;;;;;;;2.58;63.87;99319.69;8837561;33;20432;-77
2021/01/30 18:39:31;;;;;;;11.13;6.67;;;;;;;2.50;64.23;99314.78;8839012;33;20158;-77
2021/01/30 18:44:33;;;;;;;14.07;6.67;;;;;;;2.43;64.03;99327.41;8843733;33;20245;-78
2021/01/30 18:49:37;;;;;;;9.57;6.10;;;;;;;2.23;64.52;99327.56;8844103;33;20501;-78
2021/01/30 18:54:39;;;;;;;10.80;5.87;;;;;;;2.05;65.47;99318.78;8846260;33;20216;-79
2021/01/30 18:59:41;;;;;;;11.17;6.30;;;;;;;1.96;65.83;99340.31;8845637;33;20623;-77
2021/01/30 19:04:45;;;;;;;10.40;5.83;;;;;;;1.88;66.29;99338.03;8871696;32;20273;-78
2021/01/30 19:09:47;;;;;;;11.53;6.77;;;;;;;1.82;66.35;99340.13;8859764;32;21003;-78
2021/01/30 19:14:49;;;;;;;13.30;6.67;;;;;;;1.75;66.89;99337.75;8815438;33;20182;-79
2021/01/30 19:19:53;;;;;;;11.40;6.50;;;;;;;1.66;67.03;99332.94;8756351;33;21141;-78
2021/01/30 19:24:56;;;;;;;10.17;6.50;;;;;;;1.62;66.64;99341.91;8775901;33;20310;-77
2021/01/30 19:29:58;;;;;;;10.63;7.00;;;;;;;1.66;67.11;99348.72;8778186;33;20658;-77
2021/01/30 19:35:01;;;;;;;10.90;6.80;;;;;;;1.63;67.08;99348.03;8783691;33;20194;-76
2021/01/30 19:40:06;;;;;;;10.17;6.13;;;;;;;1.55;67.17;99349.22;8781040;33;20420;-78
2021/01/30 19:45:12;;;;;;;10.77;6.30;;;;;;;1.57;67.26;99353.59;8781844;33;20278;-76
2021/01/30 19:50:22;;;;;;;11.63;6.53;;;;;;;1.59;67.02;99352.59;8786384;33;20179;-77
2021/01/30 19:55:25;;;;;;;14.57;7.97;;;;;;;1.58;67.50;99356.13;8756673;33;21648;-77
2021/01/30 20:00:29;;;;;;;12.53;6.60;;;;;;;1.56;67.58;99357.97;8838012;33;20860;-78
2021/01/30 20:05:33;;;;;;;11.30;6.83;;;;;;;1.58;67.28;99353.50;8816925;33;20146;-78
2021/01/30 20:10:37;;;;;;;12.87;7.03;;;;;;;1.58;67.13;99363.19;8843238;33;20142;-78
2021/01/30 20:15:39;;;;;;;11.17;5.93;;;;;;;1.76;66.68;99363.19;8841531;33;20190;-78
2021/01/30 20:20:42;;;;;;;13.37;7.30;;;;;;;1.79;67.35;99370.09;8843980;33;20206;-77
2021/01/30 20:25:45;;;;;;;13.27;7.60;;;;;;;1.84;67.03;99369.84;8843475;33;20747;-78
2021/01/30 20:30:47;;;;;;;14.83;8.00;;;;;;;1.78;67.29;99366.59;8842938;33;20184;-77
2021/01/30 20:35:51;;;;;;;13.80;7.70;;;;;;;1.73;67.06;99370.38;8841470;33;20177;-78
2021/01/30 20:40:53;;;;;;;14.43;7.63;;;;;;;1.70;67.40;99371.38;8842575;33;20185;-78
2021/01/30 20:45:56;;;;;;;13.63;6.97;;;;;;;1.70;67.69;99374.00;8838499;33;20473;-77
2021/01/30 20:51:00;;;;;;;10.90;6.20;;;;;;;1.67;67.39;99365.38;8807990;33;20173;-75
2021/01/30 20:56:02;;;;;;;14.10;6.93;;;;;;;1.66;67.70;99371.59;8833297;33;21499;-77
2021/01/30 21:01:05;;;;;;;13.50;7.30;;;;;;;1.57;67.42;99372.88;8840384;33;20462;-77
2021/01/30 21:06:09;;;;;;;10.70;6.30;;;;;;;1.47;67.54;99364.53;8833087;33;20231;-78
2021/01/30 21:11:11;;;;;;;13.70;6.63;;;;;;;1.39;67.92;99361.38;8833353;33;20139;-75
2021/01/30 21:16:14;;;;;;;12.50;6.93;;;;;;;1.28;67.86;99367.13;8832633;33;20510;-76
2021/01/30 21:21:20;;;;;;;12.27;8.10;;;;;;;1.12;68.63;99366.09;8833776;33;20184;-77
2021/01/30 21:26:26;;;;;;;14.77;7.23;;;;;;;1.13;68.87;99370.47;8833766;33;20174;-79
2021/01/30 21:31:29;;;;;;;13.50;7.73;;;;;;;1.09;68.76;99377.63;8839544;33;20189;-78
2021/01/30 21:36:32;;;;;;;15.70;8.00;;;;;;;1.06;68.95;99377.75;8842782;33;20214;-76
2021/01/30 21:41:35;;;;;;;12.00;8.10;;;;;;;1.02;69.18;99383.25;8841574;33;20169;-77
2021/01/30 21:46:38;;;;;;;16.00;7.40;;;;;;;0.98;69.34;99384.28;8811266;33;20191;-77
2021/01/30 21:51:41;;;;;;;13.60;7.37;;;;;;;0.92;69.68;99387.19;8832178;33;20284;-76
2021/01/30 21:56:43;;;;;;;15.90;8.00;;;;;;;0.92;69.89;99385.41;8839930;33;20213;-78
2021/01/30 22:01:46;;;;;;;15.20;8.57;;;;;;;0.94;69.96;99385.34;8812832;33;20154;-78
2021/01/30 22:06:49;;;;;;;14.53;7.97;;;;;;;0.92;69.84;99393.28;8836537;33;20159;-77
2021/01/30 22:11:51;;;;;;;18.03;8.37;;;;;;;0.84;69.84;99396.25;8837388;33;20173;-77
2021/01/30 22:16:54;;;;;;;12.27;7.53;;;;;;;0.79;69.89;99387.69;8837984;33;20181;-78
2021/01/30 22:21:57;;;;;;;13.83;8.30;;;;;;;0.78;70.04;99395.66;8836269;33;20185;-77
2021/01/30 22:26:59;;;;;;;16.53;7.87;;;;;;;0.72;70.06;99396.78;8834363;33;20295;-77
2021/01/30 22:32:02;;;;;;;13.50;7.27;;;;;;;0.65;70.38;99395.31;8831035;33;20875;-76
2021/01/30 22:37:05;;;;;;;13.87;7.43;;;;;;;0.66;70.45;99399.66;8831299;33;20691;-77
2021/01/30 22:42:08;;;;;;;20.73;8.67;;;;;;;0.70;70.39;99401.25;8831615;33;20249;-77
2021/01/30 22:47:10;;;;;;;15.23;7.30;;;;;;;0.69;70.16;99396.03;8831176;33;20651;-77
2021/01/30 22:52:14;;;;;;;14.80;7.13;;;;;;;0.66;70.06;99387.38;8831796;33;20178;-77
2021/01/30 22:57:16;;;;;;;15.63;7.67;;;;;;;0.70;69.94;99389.88;8830366;33;21879;-76
2021/01/30 23:02:23;;;;;;;8.60;5.83;;;;;;;0.65;69.96;99390.91;8831494;33;20744;-76
2021/01/30 23:07:30;;;;;;;16.20;6.37;;;;;;;0.58;70.16;99396.50;8830782;33;21084;-76
2021/01/30 23:12:33;;;;;;;12.33;6.90;;;;;;;0.56;70.33;99386.03;8831596;33;20273;-77
2021/01/30 23:17:35;;;;;;;13.47;6.57;;;;;;;0.59;70.38;99395.59;8832844;33;22109;-77
2021/01/30 23:22:41;;;;;;;18.87;7.10;;;;;;;0.63;70.34;99402.41;8836128;33;20186;-77
2021/01/30 23:27:44;;;;;;;11.67;6.83;;;;;;;0.64;70.27;99389.22;8835494;33;20192;-77
2021/01/30 23:32:46;;;;;;;10.60;6.60;;;;;;;0.63;70.57;99394.50;8835732;33;20239;-76
2021/01/30 23:37:50;;;;;;;11.77;6.87;;;;;;;0.66;70.46;99394.41;8835769;33;20838;-75
2021/01/30 23:42:53;;;;;;;11.63;5.97;;;;;;;0.62;70.62;99396.28;8835878;33;21435;-77
2021/01/30 23:47:58;;;;;;;10.37;6.00;;;;;;;0.57;70.39;99387.75;8835062;32;20170;-76
2021/01/30 23:53:03;;;;;;;9.47;6.40;;;;;;;0.56;70.57;99387.81;8835218;33;20602;-76
2021/01/30 23:58:05;;;;;;;14.70;6.73;;;;;;;0.53;70.46;99394.06;8835667;33;20143;-76
